Terminal Aerodrome Forecast
Issued by NWS Cleveland, OH

Home | Current Version | Previous Version | Graphics & Text | Print | Product List | Glossary On
Versions: 1 2 3 4 5 6 7 8 9 10 11 12 13 14 15 16 17 18 19 20 21 22
766
FTUS41 KCLE 230531
TAFMFD
TAF
KMFD 230531Z 2306/2406 27005KT P6SM FEW027 SCT150
     FM230800 26005KT 5SM BR SCT025 BKN070
      TEMPO 2309/2312 2SM BR
     FM231200 26004KT 4SM BR BKN015 BKN028
     FM231500 27005KT P6SM SCT016 BKN025
     FM231700 28007KT P6SM SCT025 BKN040 PROB30 2317/2322 4SM TS
      BKN025CB
     FM232200 28007KT P6SM FEW030 SCT100=

USA.gov is the U.S. government's official web portal to all federal, state and local government web resources and services.